sensor_id;sensor_type;location;lat;lon;timestamp;P1;durP1;ratioP1;P2;durP2;ratioP2
26953;SDS011;14508;50.924;11.600;2022-07-23T00:01:18;10.23;;;6.65;;
26953;SDS011;14508;50.924;11.600;2022-07-23T00:03:45;20.00;;;6.88;;
26953;SDS011;14508;50.924;11.600;2022-07-23T00:06:13;12.27;;;5.88;;
26953;SDS011;14508;50.924;11.600;2022-07-23T00:08:40;14.98;;;6.07;;
26953;SDS011;14508;50.924;11.600;2022-07-23T00:11:07;10.77;;;6.20;;
26953;SDS011;14508;50.924;11.600;2022-07-23T00:13:33;9.23;;;6.35;;
26953;SDS011;14508;50.924;11.600;2022-07-23T00:16:00;9.32;;;6.43;;
26953;SDS011;14508;50.924;11.600;2022-07-23T00:18:27;11.68;;;6.00;;
26953;SDS011;14508;50.924;11.600;2022-07-23T00:20:54;10.75;;;5.82;;
26953;SDS011;14508;50.924;11.600;2022-07-23T00:23:22;9.20;;;6.43;;
26953;SDS011;14508;50.924;11.600;2022-07-23T00:25:50;10.02;;;6.35;;
26953;SDS011;14508;50.924;11.600;2022-07-23T00:28:17;12.68;;;6.30;;
26953;SDS011;14508;50.924;11.600;2022-07-23T00:30:44;11.45;;;5.93;;
26953;SDS011;14508;50.924;11.600;2022-07-23T00:33:11;9.88;;;6.50;;
26953;SDS011;14508;50.924;11.600;2022-07-23T00:35:38;11.63;;;6.95;;
26953;SDS011;14508;50.924;11.600;2022-07-23T00:38:07;10.98;;;7.18;;
26953;SDS011;14508;50.924;11.600;2022-07-23T00:40:36;9.25;;;6.32;;
26953;SDS011;14508;50.924;11.600;2022-07-23T00:43:04;12.50;;;6.55;;
26953;SDS011;14508;50.924;11.600;2022-07-23T00:45:31;12.73;;;6.57;;
26953;SDS011;14508;50.924;11.600;2022-07-23T00:47:58;11.80;;;6.65;;
26953;SDS011;14508;50.924;11.600;2022-07-23T00:50:25;8.82;;;6.53;;
26953;SDS011;14508;50.924;11.600;2022-07-23T00:52:52;12.15;;;6.00;;
26953;SDS011;14508;50.924;11.600;2022-07-23T00:55:19;13.13;;;7.35;;
26953;SDS011;14508;50.924;11.600;2022-07-23T00:57:47;12.25;;;7.13;;
26953;SDS011;14508;50.924;11.600;2022-07-23T01:00:15;9.90;;;6.53;;
26953;SDS011;14508;50.924;11.600;2022-07-23T01:02:42;13.25;;;6.70;;
26953;SDS011;14508;50.924;11.600;2022-07-23T01:05:09;9.60;;;6.47;;
26953;SDS011;14508;50.924;11.600;2022-07-23T01:07:36;12.40;;;7.15;;
26953;SDS011;14508;50.924;11.600;2022-07-23T01:10:04;13.02;;;6.82;;
26953;SDS011;14508;50.924;11.600;2022-07-23T01:12:52;10.40;;;6.85;;
26953;SDS011;14508;50.924;11.600;2022-07-23T01:15:19;12.93;;;6.50;;
26953;SDS011;14508;50.924;11.600;2022-07-23T01:17:46;10.90;;;6.43;;
26953;SDS011;14508;50.924;11.600;2022-07-23T01:20:13;9.93;;;6.38;;
26953;SDS011;14508;50.924;11.600;2022-07-23T01:22:41;9.07;;;6.80;;
26953;SDS011;14508;50.924;11.600;2022-07-23T01:25:08;12.73;;;6.72;;
26953;SDS011;14508;50.924;11.600;2022-07-23T01:27:36;10.50;;;5.85;;
26953;SDS011;14508;50.924;11.600;2022-07-23T01:30:04;10.35;;;6.68;;
26953;SDS011;14508;50.924;11.600;2022-07-23T01:32:32;14.65;;;6.78;;
26953;SDS011;14508;50.924;11.600;2022-07-23T01:34:58;11.35;;;6.10;;
26953;SDS011;14508;50.924;11.600;2022-07-23T01:37:25;12.50;;;7.30;;
26953;SDS011;14508;50.924;11.600;2022-07-23T01:39:54;14.02;;;7.65;;
26953;SDS011;14508;50.924;11.600;2022-07-23T01:42:22;15.20;;;6.45;;
26953;SDS011;14508;50.924;11.600;2022-07-23T01:44:50;10.65;;;6.85;;
26953;SDS011;14508;50.924;11.600;2022-07-23T01:47:20;12.13;;;7.00;;
26953;SDS011;14508;50.924;11.600;2022-07-23T01:49:50;14.45;;;7.53;;
26953;SDS011;14508;50.924;11.600;2022-07-23T01:52:43;11.55;;;6.60;;
26953;SDS011;14508;50.924;11.600;2022-07-23T01:55:11;8.18;;;6.60;;
26953;SDS011;14508;50.924;11.600;2022-07-23T01:57:41;12.60;;;6.95;;
26953;SDS011;14508;50.924;11.600;2022-07-23T02:00:10;11.35;;;6.85;;
26953;SDS011;14508;50.924;11.600;2022-07-23T02:02:45;12.70;;;7.15;;
26953;SDS011;14508;50.924;11.600;2022-07-23T02:05:12;11.38;;;6.55;;
26953;SDS011;14508;50.924;11.600;2022-07-23T02:07:39;14.38;;;8.02;;
26953;SDS011;14508;50.924;11.600;2022-07-23T02:10:06;10.68;;;7.60;;
26953;SDS011;14508;50.924;11.600;2022-07-23T02:12:37;12.80;;;7.97;;
26953;SDS011;14508;50.924;11.600;2022-07-23T02:15:05;14.27;;;7.80;;
26953;SDS011;14508;50.924;11.600;2022-07-23T02:17:32;9.45;;;6.65;;
26953;SDS011;14508;50.924;11.600;2022-07-23T02:20:00;15.20;;;7.70;;
26953;SDS011;14508;50.924;11.600;2022-07-23T02:22:27;14.10;;;7.22;;
26953;SDS011;14508;50.924;11.600;2022-07-23T02:24:54;10.32;;;7.45;;
26953;SDS011;14508;50.924;11.600;2022-07-23T02:27:21;10.13;;;7.28;;
26953;SDS011;14508;50.924;11.600;2022-07-23T02:29:49;14.20;;;7.57;;
26953;SDS011;14508;50.924;11.600;2022-07-23T02:32:16;16.60;;;7.70;;
26953;SDS011;14508;50.924;11.600;2022-07-23T02:34:43;21.38;;;8.45;;
26953;SDS011;14508;50.924;11.600;2022-07-23T02:37:10;11.05;;;7.20;;
26953;SDS011;14508;50.924;11.600;2022-07-23T02:39:37;13.50;;;7.60;;
26953;SDS011;14508;50.924;11.600;2022-07-23T02:42:04;14.65;;;7.75;;
26953;SDS011;14508;50.924;11.600;2022-07-23T02:44:32;17.83;;;8.80;;
26953;SDS011;14508;50.924;11.600;2022-07-23T02:47:00;15.35;;;8.52;;
26953;SDS011;14508;50.924;11.600;2022-07-23T02:49:27;14.88;;;8.57;;
26953;SDS011;14508;50.924;11.600;2022-07-23T02:51:54;15.07;;;8.10;;
26953;SDS011;14508;50.924;11.600;2022-07-23T02:54:21;12.32;;;7.38;;
26953;SDS011;14508;50.924;11.600;2022-07-23T02:56:50;13.52;;;8.65;;
26953;SDS011;14508;50.924;11.600;2022-07-23T02:59:17;14.75;;;7.90;;
26953;SDS011;14508;50.924;11.600;2022-07-23T03:01:46;13.68;;;7.90;;
26953;SDS011;14508;50.924;11.600;2022-07-23T03:04:14;14.98;;;7.72;;
26953;SDS011;14508;50.924;11.600;2022-07-23T03:06:42;13.98;;;7.55;;
26953;SDS011;14508;50.924;11.600;2022-07-23T03:09:08;13.40;;;7.05;;
26953;SDS011;14508;50.924;11.600;2022-07-23T03:11:37;13.88;;;8.45;;
26953;SDS011;14508;50.924;11.600;2022-07-23T03:14:04;16.52;;;6.43;;
26953;SDS011;14508;50.924;11.600;2022-07-23T03:16:31;12.43;;;6.72;;
26953;SDS011;14508;50.924;11.600;2022-07-23T03:18:58;11.75;;;7.43;;
26953;SDS011;14508;50.924;11.600;2022-07-23T03:21:27;11.73;;;7.25;;
26953;SDS011;14508;50.924;11.600;2022-07-23T03:23:54;16.27;;;7.93;;
26953;SDS011;14508;50.924;11.600;2022-07-23T03:26:20;13.90;;;7.32;;
26953;SDS011;14508;50.924;11.600;2022-07-23T03:28:50;15.32;;;7.45;;
26953;SDS011;14508;50.924;11.600;2022-07-23T03:31:18;15.60;;;8.43;;
26953;SDS011;14508;50.924;11.600;2022-07-23T03:33:45;19.95;;;8.73;;
26953;SDS011;14508;50.924;11.600;2022-07-23T03:36:11;17.80;;;10.02;;
26953;SDS011;14508;50.924;11.600;2022-07-23T03:38:44;24.25;;;10.88;;
26953;SDS011;14508;50.924;11.600;2022-07-23T03:41:11;25.85;;;10.27;;
26953;SDS011;14508;50.924;11.600;2022-07-23T03:43:37;19.52;;;11.10;;
26953;SDS011;14508;50.924;11.600;2022-07-23T03:46:04;16.92;;;11.15;;
26953;SDS011;14508;50.924;11.600;2022-07-23T03:48:31;24.70;;;12.77;;
26953;SDS011;14508;50.924;11.600;2022-07-23T03:50:58;28.23;;;13.32;;
26953;SDS011;14508;50.924;11.600;2022-07-23T03:53:24;18.00;;;10.55;;
26953;SDS011;14508;50.924;11.600;2022-07-23T03:55:52;19.73;;;11.73;;
26953;SDS011;14508;50.924;11.600;2022-07-23T03:58:20;19.13;;;12.00;;
26953;SDS011;14508;50.924;11.600;2022-07-23T04:00:46;21.90;;;11.98;;
26953;SDS011;14508;50.924;11.600;2022-07-23T04:03:14;18.35;;;11.65;;
26953;SDS011;14508;50.924;11.600;2022-07-23T04:05:42;26.70;;;13.20;;
26953;SDS011;14508;50.924;11.600;2022-07-23T04:08:12;19.83;;;11.77;;
26953;SDS011;14508;50.924;11.600;2022-07-23T04:10:42;27.80;;;13.38;;
26953;SDS011;14508;50.924;11.600;2022-07-23T04:13:11;17.75;;;11.57;;
26953;SDS011;14508;50.924;11.600;2022-07-23T04:15:38;19.00;;;11.50;;
26953;SDS011;14508;50.924;11.600;2022-07-23T04:18:05;22.38;;;12.38;;
26953;SDS011;14508;50.924;11.600;2022-07-23T04:20:41;21.20;;;11.93;;
26953;SDS011;14508;50.924;11.600;2022-07-23T04:23:08;20.52;;;13.13;;
26953;SDS011;14508;50.924;11.600;2022-07-23T04:25:36;18.52;;;11.80;;
26953;SDS011;14508;50.924;11.600;2022-07-23T04:28:04;20.48;;;13.10;;
26953;SDS011;14508;50.924;11.600;2022-07-23T04:30:32;23.90;;;13.48;;
26953;SDS011;14508;50.924;11.600;2022-07-23T04:32:59;22.55;;;13.30;;
26953;SDS011;14508;50.924;11.600;2022-07-23T04:35:27;22.70;;;14.52;;
26953;SDS011;14508;50.924;11.600;2022-07-23T04:38:01;29.08;;;14.15;;
26953;SDS011;14508;50.924;11.600;2022-07-23T04:40:29;23.75;;;13.80;;
26953;SDS011;14508;50.924;11.600;2022-07-23T04:42:56;23.40;;;12.85;;
26953;SDS011;14508;50.924;11.600;2022-07-23T04:45:24;19.35;;;12.55;;
26953;SDS011;14508;50.924;11.600;2022-07-23T04:47:52;20.35;;;12.13;;
26953;SDS011;14508;50.924;11.600;2022-07-23T04:50:19;23.35;;;13.85;;
26953;SDS011;14508;50.924;11.600;2022-07-23T04:52:48;28.92;;;13.10;;
26953;SDS011;14508;50.924;11.600;2022-07-23T04:55:15;20.02;;;12.75;;
26953;SDS011;14508;50.924;11.600;2022-07-23T04:57:42;28.15;;;14.15;;
26953;SDS011;14508;50.924;11.600;2022-07-23T05:00:09;20.30;;;12.98;;
26953;SDS011;14508;50.924;11.600;2022-07-23T05:02:36;27.27;;;13.55;;
26953;SDS011;14508;50.924;11.600;2022-07-23T05:05:06;20.73;;;12.93;;
26953;SDS011;14508;50.924;11.600;2022-07-23T05:07:33;24.63;;;14.20;;
26953;SDS011;14508;50.924;11.600;2022-07-23T05:10:00;21.83;;;13.88;;
26953;SDS011;14508;50.924;11.600;2022-07-23T05:12:27;26.25;;;14.52;;
26953;SDS011;14508;50.924;11.600;2022-07-23T05:14:55;22.70;;;13.45;;
26953;SDS011;14508;50.924;11.600;2022-07-23T05:17:21;24.90;;;13.63;;
26953;SDS011;14508;50.924;11.600;2022-07-23T05:19:48;27.25;;;13.90;;
26953;SDS011;14508;50.924;11.600;2022-07-23T05:22:16;22.20;;;12.82;;
26953;SDS011;14508;50.924;11.600;2022-07-23T05:24:43;22.27;;;13.00;;
26953;SDS011;14508;50.924;11.600;2022-07-23T05:27:11;24.30;;;13.23;;
26953;SDS011;14508;50.924;11.600;2022-07-23T05:29:37;22.35;;;13.05;;
26953;SDS011;14508;50.924;11.600;2022-07-23T05:32:04;21.30;;;13.38;;
26953;SDS011;14508;50.924;11.600;2022-07-23T05:34:34;21.63;;;13.35;;
26953;SDS011;14508;50.924;11.600;2022-07-23T05:37:01;25.55;;;12.95;;
26953;SDS011;14508;50.924;11.600;2022-07-23T05:39:29;25.33;;;13.18;;
26953;SDS011;14508;50.924;11.600;2022-07-23T05:41:55;21.45;;;13.65;;
26953;SDS011;14508;50.924;11.600;2022-07-23T05:44:22;24.13;;;14.10;;
26953;SDS011;14508;50.924;11.600;2022-07-23T05:46:49;24.30;;;14.60;;
26953;SDS011;14508;50.924;11.600;2022-07-23T05:49:20;24.20;;;13.80;;
26953;SDS011;14508;50.924;11.600;2022-07-23T05:52:20;24.88;;;14.40;;
26953;SDS011;14508;50.924;11.600;2022-07-23T05:55:07;26.50;;;14.38;;
26953;SDS011;14508;50.924;11.600;2022-07-23T05:57:36;26.10;;;14.50;;
26953;SDS011;14508;50.924;11.600;2022-07-23T06:00:03;25.38;;;14.95;;
26953;SDS011;14508;50.924;11.600;2022-07-23T06:02:39;25.95;;;14.40;;
26953;SDS011;14508;50.924;11.600;2022-07-23T06:05:08;24.50;;;13.75;;
26953;SDS011;14508;50.924;11.600;2022-07-23T06:07:37;21.33;;;12.70;;
26953;SDS011;14508;50.924;11.600;2022-07-23T06:10:04;23.85;;;12.73;;
26953;SDS011;14508;50.924;11.600;2022-07-23T06:12:33;18.60;;;11.98;;
26953;SDS011;14508;50.924;11.600;2022-07-23T06:15:00;20.73;;;12.45;;
26953;SDS011;14508;50.924;11.600;2022-07-23T06:17:27;22.77;;;12.00;;
26953;SDS011;14508;50.924;11.600;2022-07-23T06:19:54;19.63;;;12.00;;
26953;SDS011;14508;50.924;11.600;2022-07-23T06:22:22;17.73;;;11.82;;
26953;SDS011;14508;50.924;11.600;2022-07-23T06:24:49;23.98;;;10.80;;
26953;SDS011;14508;50.924;11.600;2022-07-23T06:27:18;15.90;;;9.57;;
26953;SDS011;14508;50.924;11.600;2022-07-23T06:29:47;17.27;;;9.40;;
26953;SDS011;14508;50.924;11.600;2022-07-23T06:32:13;17.83;;;10.55;;
26953;SDS011;14508;50.924;11.600;2022-07-23T06:34:40;20.13;;;11.10;;
26953;SDS011;14508;50.924;11.600;2022-07-23T06:37:06;19.65;;;10.48;;
26953;SDS011;14508;50.924;11.600;2022-07-23T06:39:33;15.73;;;10.75;;
26953;SDS011;14508;50.924;11.600;2022-07-23T06:42:00;16.67;;;10.13;;
26953;SDS011;14508;50.924;11.600;2022-07-23T06:44:38;18.38;;;10.70;;
26953;SDS011;14508;50.924;11.600;2022-07-23T06:47:08;16.60;;;10.65;;
26953;SDS011;14508;50.924;11.600;2022-07-23T06:49:35;16.45;;;11.00;;
26953;SDS011;14508;50.924;11.600;2022-07-23T06:52:01;21.80;;;12.25;;
26953;SDS011;14508;50.924;11.600;2022-07-23T06:54:28;16.67;;;11.30;;
26953;SDS011;14508;50.924;11.600;2022-07-23T06:56:55;21.20;;;10.23;;
26953;SDS011;14508;50.924;11.600;2022-07-23T06:59:22;15.48;;;11.07;;
26953;SDS011;14508;50.924;11.600;2022-07-23T07:01:49;21.20;;;10.93;;
26953;SDS011;14508;50.924;11.600;2022-07-23T07:04:17;17.13;;;10.52;;
26953;SDS011;14508;50.924;11.600;2022-07-23T07:06:44;20.13;;;11.85;;
26953;SDS011;14508;50.924;11.600;2022-07-23T07:09:10;17.85;;;11.90;;
26953;SDS011;14508;50.924;11.600;2022-07-23T07:11:37;20.92;;;12.52;;
26953;SDS011;14508;50.924;11.600;2022-07-23T07:14:04;19.95;;;11.93;;
26953;SDS011;14508;50.924;11.600;2022-07-23T07:16:31;28.67;;;12.30;;
26953;SDS011;14508;50.924;11.600;2022-07-23T07:18:58;18.20;;;12.15;;
26953;SDS011;14508;50.924;11.600;2022-07-23T07:21:26;20.33;;;12.85;;
26953;SDS011;14508;50.924;11.600;2022-07-23T07:23:52;19.55;;;12.23;;
26953;SDS011;14508;50.924;11.600;2022-07-23T07:26:19;22.48;;;12.43;;
26953;SDS011;14508;50.924;11.600;2022-07-23T07:28:46;20.80;;;12.65;;
26953;SDS011;14508;50.924;11.600;2022-07-23T07:31:12;20.48;;;13.52;;
26953;SDS011;14508;50.924;11.600;2022-07-23T07:33:39;22.65;;;13.55;;
26953;SDS011;14508;50.924;11.600;2022-07-23T07:36:06;24.77;;;14.43;;
26953;SDS011;14508;50.924;11.600;2022-07-23T07:38:34;20.60;;;13.48;;
26953;SDS011;14508;50.924;11.600;2022-07-23T07:41:01;19.27;;;13.38;;
26953;SDS011;14508;50.924;11.600;2022-07-23T07:43:27;20.23;;;13.88;;
26953;SDS011;14508;50.924;11.600;2022-07-23T07:45:54;18.60;;;12.75;;
26953;SDS011;14508;50.924;11.600;2022-07-23T07:48:21;18.48;;;13.38;;
26953;SDS011;14508;50.924;11.600;2022-07-23T07:50:47;19.52;;;12.93;;
26953;SDS011;14508;50.924;11.600;2022-07-23T07:53:14;20.05;;;13.40;;
26953;SDS011;14508;50.924;11.600;2022-07-23T07:55:42;16.65;;;12.35;;
26953;SDS011;14508;50.924;11.600;2022-07-23T07:58:09;17.35;;;11.80;;
26953;SDS011;14508;50.924;11.600;2022-07-23T08:00:35;21.23;;;12.93;;
26953;SDS011;14508;50.924;11.600;2022-07-23T08:03:02;20.02;;;11.52;;
26953;SDS011;14508;50.924;11.600;2022-07-23T08:05:29;28.65;;;17.02;;
26953;SDS011;14508;50.924;11.600;2022-07-23T08:07:57;18.90;;;12.45;;
26953;SDS011;14508;50.924;11.600;2022-07-23T08:10:25;15.80;;;11.70;;
26953;SDS011;14508;50.924;11.600;2022-07-23T08:12:55;19.13;;;12.05;;
26953;SDS011;14508;50.924;11.600;2022-07-23T08:15:23;26.17;;;12.65;;
26953;SDS011;14508;50.924;11.600;2022-07-23T08:17:52;16.60;;;11.65;;
26953;SDS011;14508;50.924;11.600;2022-07-23T08:20:20;15.98;;;12.07;;
26953;SDS011;14508;50.924;11.600;2022-07-23T08:22:49;17.77;;;12.88;;
26953;SDS011;14508;50.924;11.600;2022-07-23T08:25:19;20.15;;;13.63;;
26953;SDS011;14508;50.924;11.600;2022-07-23T08:27:48;17.33;;;12.23;;
26953;SDS011;14508;50.924;11.600;2022-07-23T08:30:16;17.63;;;11.95;;
26953;SDS011;14508;50.924;11.600;2022-07-23T08:32:48;23.65;;;12.10;;
26953;SDS011;14508;50.924;11.600;2022-07-23T08:35:16;19.10;;;12.57;;
26953;SDS011;14508;50.924;11.600;2022-07-23T08:37:42;18.45;;;12.55;;
26953;SDS011;14508;50.924;11.600;2022-07-23T08:40:10;20.17;;;11.88;;
26953;SDS011;14508;50.924;11.600;2022-07-23T08:42:37;15.32;;;11.88;;
26953;SDS011;14508;50.924;11.600;2022-07-23T08:45:04;15.43;;;11.75;;
26953;SDS011;14508;50.924;11.600;2022-07-23T08:47:36;20.05;;;11.73;;
26953;SDS011;14508;50.924;11.600;2022-07-23T08:50:04;20.65;;;11.90;;
26953;SDS011;14508;50.924;11.600;2022-07-23T08:52:33;15.63;;;10.73;;
26953;SDS011;14508;50.924;11.600;2022-07-23T08:55:01;18.92;;;11.75;;
26953;SDS011;14508;50.924;11.600;2022-07-23T08:57:28;24.40;;;11.95;;
26953;SDS011;14508;50.924;11.600;2022-07-23T08:59:55;16.42;;;12.55;;
26953;SDS011;14508;50.924;11.600;2022-07-23T09:02:22;20.15;;;12.80;;
26953;SDS011;14508;50.924;11.600;2022-07-23T09:04:51;17.85;;;12.45;;
26953;SDS011;14508;50.924;11.600;2022-07-23T09:07:17;19.80;;;13.13;;
26953;SDS011;14508;50.924;11.600;2022-07-23T09:09:44;17.38;;;12.60;;
26953;SDS011;14508;50.924;11.600;2022-07-23T09:12:11;17.77;;;11.90;;
26953;SDS011;14508;50.924;11.600;2022-07-23T09:14:38;21.48;;;13.20;;
26953;SDS011;14508;50.924;11.600;2022-07-23T09:17:09;15.95;;;12.75;;
26953;SDS011;14508;50.924;11.600;2022-07-23T09:19:37;23.10;;;12.07;;
26953;SDS011;14508;50.924;11.600;2022-07-23T09:22:22;16.85;;;12.35;;
26953;SDS011;14508;50.924;11.600;2022-07-23T09:25:04;19.35;;;14.73;;
26953;SDS011;14508;50.924;11.600;2022-07-23T09:27:52;20.10;;;14.63;;
26953;SDS011;14508;50.924;11.600;2022-07-23T09:30:21;27.67;;;14.27;;
26953;SDS011;14508;50.924;11.600;2022-07-23T09:33:05;19.00;;;14.02;;
26953;SDS011;14508;50.924;11.600;2022-07-23T09:35:43;24.33;;;14.30;;
26953;SDS011;14508;50.924;11.600;2022-07-23T09:38:11;16.88;;;12.60;;
26953;SDS011;14508;50.924;11.600;2022-07-23T09:40:38;17.52;;;12.88;;
26953;SDS011;14508;50.924;11.600;2022-07-23T09:43:05;19.40;;;13.80;;
26953;SDS011;14508;50.924;11.600;2022-07-23T09:45:32;19.02;;;13.68;;
26953;SDS011;14508;50.924;11.600;2022-07-23T09:48:09;19.38;;;14.23;;
26953;SDS011;14508;50.924;11.600;2022-07-23T09:50:37;17.55;;;13.65;;
26953;SDS011;14508;50.924;11.600;2022-07-23T09:53:04;23.17;;;14.48;;
26953;SDS011;14508;50.924;11.600;2022-07-23T09:55:33;20.05;;;14.48;;
26953;SDS011;14508;50.924;11.600;2022-07-23T09:58:02;25.13;;;15.50;;
26953;SDS011;14508;50.924;11.600;2022-07-23T10:00:29;19.80;;;15.88;;
26953;SDS011;14508;50.924;11.600;2022-07-23T10:02:57;21.85;;;15.55;;
26953;SDS011;14508;50.924;11.600;2022-07-23T10:05:28;20.70;;;15.05;;
26953;SDS011;14508;50.924;11.600;2022-07-23T10:08:16;21.40;;;14.98;;
26953;SDS011;14508;50.924;11.600;2022-07-23T10:11:04;18.92;;;13.48;;
26953;SDS011;14508;50.924;11.600;2022-07-23T10:13:45;17.83;;;12.73;;
26953;SDS011;14508;50.924;11.600;2022-07-23T10:16:19;22.05;;;14.57;;
26953;SDS011;14508;50.924;11.600;2022-07-23T10:18:46;21.83;;;15.05;;
26953;SDS011;14508;50.924;11.600;2022-07-23T10:21:16;22.98;;;14.57;;
26953;SDS011;14508;50.924;11.600;2022-07-23T10:23:48;20.67;;;14.68;;
26953;SDS011;14508;50.924;11.600;2022-07-23T10:26:27;22.55;;;14.60;;
26953;SDS011;14508;50.924;11.600;2022-07-23T10:29:02;19.92;;;13.43;;
26953;SDS011;14508;50.924;11.600;2022-07-23T10:31:39;19.48;;;12.88;;
26953;SDS011;14508;50.924;11.600;2022-07-23T10:34:16;21.88;;;13.40;;
26953;SDS011;14508;50.924;11.600;2022-07-23T10:36:49;26.40;;;14.25;;
26953;SDS011;14508;50.924;11.600;2022-07-23T10:39:19;20.20;;;13.10;;
26953;SDS011;14508;50.924;11.600;2022-07-23T10:41:50;20.70;;;13.73;;
26953;SDS011;14508;50.924;11.600;2022-07-23T10:44:18;20.80;;;13.85;;
26953;SDS011;14508;50.924;11.600;2022-07-23T10:46:54;21.35;;;13.52;;
26953;SDS011;14508;50.924;11.600;2022-07-23T10:49:38;20.15;;;12.82;;
26953;SDS011;14508;50.924;11.600;2022-07-23T10:54:56;22.58;;;12.95;;
26953;SDS011;14508;50.924;11.600;2022-07-23T10:58:21;20.40;;;15.18;;
26953;SDS011;14508;50.924;11.600;2022-07-23T11:00:49;20.00;;;13.73;;
26953;SDS011;14508;50.924;11.600;2022-07-23T11:03:30;22.90;;;15.00;;
26953;SDS011;14508;50.924;11.600;2022-07-23T11:05:58;22.38;;;15.30;;
26953;SDS011;14508;50.924;11.600;2022-07-23T11:08:25;24.30;;;14.05;;
26953;SDS011;14508;50.924;11.600;2022-07-23T11:10:53;24.73;;;15.98;;
26953;SDS011;14508;50.924;11.600;2022-07-23T11:13:35;21.35;;;15.35;;
26953;SDS011;14508;50.924;11.600;2022-07-23T11:16:10;24.05;;;15.73;;
26953;SDS011;14508;50.924;11.600;2022-07-23T11:18:58;20.83;;;13.73;;
26953;SDS011;14508;50.924;11.600;2022-07-23T11:21:44;26.13;;;15.18;;
26953;SDS011;14508;50.924;11.600;2022-07-23T11:24:24;24.00;;;15.13;;
26953;SDS011;14508;50.924;11.600;2022-07-23T11:29:41;22.98;;;15.20;;
26953;SDS011;14508;50.924;11.600;2022-07-23T11:32:18;20.80;;;15.85;;
26953;SDS011;14508;50.924;11.600;2022-07-23T11:34:56;20.25;;;14.45;;
26953;SDS011;14508;50.924;11.600;2022-07-23T11:37:31;25.42;;;15.07;;
26953;SDS011;14508;50.924;11.600;2022-07-23T11:39:59;22.20;;;14.10;;
26953;SDS011;14508;50.924;11.600;2022-07-23T11:42:27;21.55;;;13.13;;
26953;SDS011;14508;50.924;11.600;2022-07-23T11:44:55;25.42;;;16.17;;
26953;SDS011;14508;50.924;11.600;2022-07-23T11:47:23;20.73;;;15.00;;
26953;SDS011;14508;50.924;11.600;2022-07-23T11:49:54;25.52;;;15.23;;
26953;SDS011;14508;50.924;11.600;2022-07-23T11:52:22;21.48;;;15.85;;
26953;SDS011;14508;50.924;11.600;2022-07-23T11:54:50;21.20;;;14.75;;
26953;SDS011;14508;50.924;11.600;2022-07-23T11:57:18;25.13;;;16.05;;
26953;SDS011;14508;50.924;11.600;2022-07-23T11:59:45;23.08;;;15.07;;
26953;SDS011;14508;50.924;11.600;2022-07-23T12:02:14;24.40;;;15.00;;
26953;SDS011;14508;50.924;11.600;2022-07-23T12:04:42;20.58;;;15.20;;
26953;SDS011;14508;50.924;11.600;2022-07-23T12:07:23;24.13;;;15.90;;
26953;SDS011;14508;50.924;11.600;2022-07-23T12:09:51;21.75;;;15.55;;
26953;SDS011;14508;50.924;11.600;2022-07-23T12:12:18;22.83;;;14.70;;
26953;SDS011;14508;50.924;11.600;2022-07-23T12:14:49;22.13;;;14.68;;
26953;SDS011;14508;50.924;11.600;2022-07-23T12:17:18;20.13;;;13.93;;
26953;SDS011;14508;50.924;11.600;2022-07-23T12:19:45;21.02;;;13.77;;
26953;SDS011;14508;50.924;11.600;2022-07-23T12:22:13;18.80;;;14.38;;
26953;SDS011;14508;50.924;11.600;2022-07-23T12:27:30;18.70;;;13.68;;
26953;SDS011;14508;50.924;11.600;2022-07-23T12:29:57;17.38;;;12.95;;
26953;SDS011;14508;50.924;11.600;2022-07-23T12:32:26;19.35;;;12.15;;
26953;SDS011;14508;50.924;11.600;2022-07-23T12:35:03;19.35;;;12.45;;
26953;SDS011;14508;50.924;11.600;2022-07-23T12:37:32;18.15;;;13.10;;
26953;SDS011;14508;50.924;11.600;2022-07-23T12:42:51;13.82;;;10.88;;
26953;SDS011;14508;50.924;11.600;2022-07-23T12:45:19;19.67;;;10.38;;
26953;SDS011;14508;50.924;11.600;2022-07-23T12:47:54;13.35;;;11.15;;
26953;SDS011;14508;50.924;11.600;2022-07-23T12:50:38;13.73;;;11.77;;
26953;SDS011;14508;50.924;11.600;2022-07-23T12:53:10;15.10;;;11.07;;
26953;SDS011;14508;50.924;11.600;2022-07-23T12:55:40;15.13;;;10.73;;
26953;SDS011;14508;50.924;11.600;2022-07-23T12:58:10;13.90;;;10.85;;
26953;SDS011;14508;50.924;11.600;2022-07-23T13:00:51;15.57;;;11.68;;
26953;SDS011;14508;50.924;11.600;2022-07-23T13:03:29;14.77;;;11.57;;
26953;SDS011;14508;50.924;11.600;2022-07-23T13:05:58;12.43;;;10.15;;
26953;SDS011;14508;50.924;11.600;2022-07-23T13:08:26;11.48;;;9.63;;
26953;SDS011;14508;50.924;11.600;2022-07-23T13:10:54;15.15;;;10.80;;
26953;SDS011;14508;50.924;11.600;2022-07-23T13:13:21;14.07;;;10.85;;
26953;SDS011;14508;50.924;11.600;2022-07-23T13:15:49;13.57;;;10.48;;
26953;SDS011;14508;50.924;11.600;2022-07-23T13:18:16;12.18;;;10.43;;
26953;SDS011;14508;50.924;11.600;2022-07-23T13:20:45;12.23;;;10.02;;
26953;SDS011;14508;50.924;11.600;2022-07-23T13:23:12;11.48;;;8.95;;
26953;SDS011;14508;50.924;11.600;2022-07-23T13:25:39;14.65;;;9.32;;
26953;SDS011;14508;50.924;11.600;2022-07-23T13:28:06;13.15;;;9.73;;
26953;SDS011;14508;50.924;11.600;2022-07-23T13:30:33;13.23;;;8.73;;
26953;SDS011;14508;50.924;11.600;2022-07-23T13:33:00;13.60;;;9.07;;
26953;SDS011;14508;50.924;11.600;2022-07-23T13:35:27;12.60;;;8.75;;
26953;SDS011;14508;50.924;11.600;2022-07-23T13:37:55;10.98;;;8.85;;
26953;SDS011;14508;50.924;11.600;2022-07-23T13:40:22;9.10;;;7.75;;
26953;SDS011;14508;50.924;11.600;2022-07-23T13:42:48;10.45;;;7.80;;
26953;SDS011;14508;50.924;11.600;2022-07-23T13:45:16;10.65;;;8.70;;
26953;SDS011;14508;50.924;11.600;2022-07-23T13:47:43;11.30;;;8.65;;
26953;SDS011;14508;50.924;11.600;2022-07-23T13:50:09;11.43;;;8.75;;
26953;SDS011;14508;50.924;11.600;2022-07-23T13:52:36;9.25;;;7.32;;
26953;SDS011;14508;50.924;11.600;2022-07-23T13:55:05;8.52;;;7.65;;
26953;SDS011;14508;50.924;11.600;2022-07-23T13:57:32;11.07;;;8.00;;
26953;SDS011;14508;50.924;11.600;2022-07-23T13:59:59;9.10;;;7.25;;
26953;SDS011;14508;50.924;11.600;2022-07-23T14:02:26;11.38;;;7.85;;
26953;SDS011;14508;50.924;11.600;2022-07-23T14:04:52;9.68;;;7.53;;
26953;SDS011;14508;50.924;11.600;2022-07-23T14:07:19;14.32;;;7.80;;
26953;SDS011;14508;50.924;11.600;2022-07-23T14:09:46;13.25;;;7.07;;
26953;SDS011;14508;50.924;11.600;2022-07-23T14:12:14;10.30;;;7.68;;
26953;SDS011;14508;50.924;11.600;2022-07-23T14:14:41;9.40;;;7.00;;
26953;SDS011;14508;50.924;11.600;2022-07-23T14:17:08;15.88;;;8.23;;
26953;SDS011;14508;50.924;11.600;2022-07-23T14:19:35;8.57;;;7.20;;
26953;SDS011;14508;50.924;11.600;2022-07-23T14:22:02;10.90;;;7.70;;
26953;SDS011;14508;50.924;11.600;2022-07-23T14:24:28;9.95;;;6.40;;
26953;SDS011;14508;50.924;11.600;2022-07-23T14:26:55;9.20;;;6.57;;
26953;SDS011;14508;50.924;11.600;2022-07-23T14:29:23;8.95;;;6.50;;
26953;SDS011;14508;50.924;11.600;2022-07-23T14:31:49;11.52;;;6.65;;
26953;SDS011;14508;50.924;11.600;2022-07-23T14:34:16;11.02;;;6.68;;
26953;SDS011;14508;50.924;11.600;2022-07-23T14:36:43;7.65;;;6.40;;